sensor_id;sensor_type;location;lat;lon;timestamp;pressure;altitude;pressure_sealevel;temperature;humidity
39267;BME280;24967;51.154;13.812;2023-05-21T00:00:41;99761.03;;;15.08;70.73
39267;BME280;24967;51.154;13.812;2023-05-21T00:03:07;99764.53;;;15.08;70.75
39267;BME280;24967;51.154;13.812;2023-05-21T00:05:38;99769.22;;;15.06;70.67
39267;BME280;24967;51.154;13.812;2023-05-21T00:08:05;99765.91;;;15.04;70.49
39267;BME280;24967;51.154;13.812;2023-05-21T00:10:31;99762.75;;;15.01;70.25
39267;BME280;24967;51.154;13.812;2023-05-21T00:12:59;99752.06;;;14.93;70.42
39267;BME280;24967;51.154;13.812;2023-05-21T00:15:25;99746.41;;;14.87;70.22
39267;BME280;24967;51.154;13.812;2023-05-21T00:17:52;99748.94;;;14.81;70.53
39267;BME280;24967;51.154;13.812;2023-05-21T00:20:18;99741.25;;;14.78;70.39
39267;BME280;24967;51.154;13.812;2023-05-21T00:22:45;99748.44;;;14.77;70.99
39267;BME280;24967;51.154;13.812;2023-05-21T00:25:12;99746.63;;;14.70;70.78
39267;BME280;24967;51.154;13.812;2023-05-21T00:27:39;99748.31;;;14.62;70.92
39267;BME280;24967;51.154;13.812;2023-05-21T00:30:07;99742.50;;;14.59;71.12
39267;BME280;24967;51.154;13.812;2023-05-21T00:32:34;99740.31;;;14.54;71.12
39267;BME280;24967;51.154;13.812;2023-05-21T00:35:00;99739.28;;;14.55;71.40
39267;BME280;24967;51.154;13.812;2023-05-21T00:37:27;99747.50;;;14.54;71.28
39267;BME280;24967;51.154;13.812;2023-05-21T00:39:58;99741.16;;;14.47;71.48
39267;BME280;24967;51.154;13.812;2023-05-21T00:42:25;99743.16;;;14.44;71.33
39267;BME280;24967;51.154;13.812;2023-05-21T00:44:51;99743.50;;;14.41;71.41
39267;BME280;24967;51.154;13.812;2023-05-21T00:47:19;99739.50;;;14.37;71.46
39267;BME280;24967;51.154;13.812;2023-05-21T00:49:46;99737.31;;;14.33;71.65
39267;BME280;24967;51.154;13.812;2023-05-21T00:52:15;99737.84;;;14.28;71.96
39267;BME280;24967;51.154;13.812;2023-05-21T00:54:45;99738.19;;;14.25;72.42
39267;BME280;24967;51.154;13.812;2023-05-21T00:57:12;99726.13;;;14.21;73.31
39267;BME280;24967;51.154;13.812;2023-05-21T00:59:39;99729.69;;;14.13;73.82
39267;BME280;24967;51.154;13.812;2023-05-21T01:02:06;99726.00;;;14.06;73.81
39267;BME280;24967;51.154;13.812;2023-05-21T01:04:35;99722.81;;;14.03;73.88
39267;BME280;24967;51.154;13.812;2023-05-21T01:07:01;99721.66;;;14.05;74.35
39267;BME280;24967;51.154;13.812;2023-05-21T01:09:27;99725.16;;;14.06;74.05
39267;BME280;24967;51.154;13.812;2023-05-21T01:11:54;99719.31;;;13.94;73.95
39267;BME280;24967;51.154;13.812;2023-05-21T01:14:22;99716.16;;;13.98;73.59
39267;BME280;24967;51.154;13.812;2023-05-21T01:16:49;99713.81;;;13.95;73.37
39267;BME280;24967;51.154;13.812;2023-05-21T01:19:18;99702.13;;;13.96;73.00
39267;BME280;24967;51.154;13.812;2023-05-21T01:21:49;99703.13;;;13.95;73.02
39267;BME280;24967;51.154;13.812;2023-05-21T01:24:18;99703.47;;;13.92;73.45
39267;BME280;24967;51.154;13.812;2023-05-21T01:26:44;99699.78;;;13.93;73.23
39267;BME280;24967;51.154;13.812;2023-05-21T01:29:11;99696.94;;;13.95;73.22
39267;BME280;24967;51.154;13.812;2023-05-21T01:31:47;99704.97;;;13.95;73.18
39267;BME280;24967;51.154;13.812;2023-05-21T01:34:21;99701.63;;;13.93;73.73
39267;BME280;24967;51.154;13.812;2023-05-21T01:36:53;99693.25;;;13.88;73.25
39267;BME280;24967;51.154;13.812;2023-05-21T01:39:25;99687.91;;;13.88;73.55
39267;BME280;24967;51.154;13.812;2023-05-21T01:41:53;99689.94;;;13.86;73.47
39267;BME280;24967;51.154;13.812;2023-05-21T01:44:22;99689.41;;;13.82;73.56
39267;BME280;24967;51.154;13.812;2023-05-21T01:46:51;99683.75;;;13.77;73.39
39267;BME280;24967;51.154;13.812;2023-05-21T01:49:18;99676.91;;;13.74;73.47
39267;BME280;24967;51.154;13.812;2023-05-21T01:51:46;99678.22;;;13.70;73.28
39267;BME280;24967;51.154;13.812;2023-05-21T01:54:13;99683.75;;;13.69;73.67
39267;BME280;24967;51.154;13.812;2023-05-21T01:56:41;99685.94;;;13.65;73.71
39267;BME280;24967;51.154;13.812;2023-05-21T01:59:07;99689.59;;;13.64;73.75
39267;BME280;24967;51.154;13.812;2023-05-21T02:01:34;99690.59;;;13.63;73.85
39267;BME280;24967;51.154;13.812;2023-05-21T02:04:00;99696.28;;;13.68;73.85
39267;BME280;24967;51.154;13.812;2023-05-21T02:06:27;99690.44;;;13.65;73.93
39267;BME280;24967;51.154;13.812;2023-05-21T02:08:53;99694.78;;;13.66;73.80
39267;BME280;24967;51.154;13.812;2023-05-21T02:11:20;99691.28;;;13.65;74.18
39267;BME280;24967;51.154;13.812;2023-05-21T02:13:48;99693.75;;;13.67;74.23
39267;BME280;24967;51.154;13.812;2023-05-21T02:16:15;99693.78;;;13.59;74.30
39267;BME280;24967;51.154;13.812;2023-05-21T02:18:41;99692.78;;;13.60;74.32
39267;BME280;24967;51.154;13.812;2023-05-21T02:21:08;99685.91;;;13.57;74.04
39267;BME280;24967;51.154;13.812;2023-05-21T02:23:35;99674.88;;;13.52;73.55
39267;BME280;24967;51.154;13.812;2023-05-21T02:26:02;99681.91;;;13.53;73.36
39267;BME280;24967;51.154;13.812;2023-05-21T02:28:29;99667.75;;;13.52;73.16
39267;BME280;24967;51.154;13.812;2023-05-21T02:30:58;99671.91;;;13.47;73.16
39267;BME280;24967;51.154;13.812;2023-05-21T02:33:24;99670.91;;;13.48;72.59
39267;BME280;24967;51.154;13.812;2023-05-21T02:35:51;99668.88;;;13.42;72.44
39267;BME280;24967;51.154;13.812;2023-05-21T02:38:17;99668.53;;;13.37;72.45
39267;BME280;24967;51.154;13.812;2023-05-21T02:40:47;99670.88;;;13.32;72.52
39267;BME280;24967;51.154;13.812;2023-05-21T02:43:13;99677.53;;;13.27;73.00
39267;BME280;24967;51.154;13.812;2023-05-21T02:45:40;99678.38;;;13.28;73.12
39267;BME280;24967;51.154;13.812;2023-05-21T02:48:07;99679.88;;;13.31;72.92
39267;BME280;24967;51.154;13.812;2023-05-21T02:50:35;99676.19;;;13.23;72.69
39267;BME280;24967;51.154;13.812;2023-05-21T02:53:01;99682.84;;;13.19;72.83
39267;BME280;24967;51.154;13.812;2023-05-21T02:55:28;99681.34;;;13.17;73.16
39267;BME280;24967;51.154;13.812;2023-05-21T02:57:54;99675.50;;;13.13;73.41
39267;BME280;24967;51.154;13.812;2023-05-21T03:00:21;99672.16;;;13.11;73.28
39267;BME280;24967;51.154;13.812;2023-05-21T03:02:47;99677.97;;;13.06;73.24
39267;BME280;24967;51.154;13.812;2023-05-21T03:05:15;99671.13;;;13.04;73.29
39267;BME280;24967;51.154;13.812;2023-05-21T03:07:41;99672.63;;;12.98;73.51
39267;BME280;24967;51.154;13.812;2023-05-21T03:10:08;99670.94;;;12.97;73.56
39267;BME280;24967;51.154;13.812;2023-05-21T03:12:35;99665.28;;;13.00;73.78
39267;BME280;24967;51.154;13.812;2023-05-21T03:15:02;99663.94;;;12.96;74.37
39267;BME280;24967;51.154;13.812;2023-05-21T03:17:28;99663.94;;;12.96;74.45
39267;BME280;24967;51.154;13.812;2023-05-21T03:19:55;99666.28;;;12.99;74.23
39267;BME280;24967;51.154;13.812;2023-05-21T03:22:23;99665.97;;;13.02;74.23
39267;BME280;24967;51.154;13.812;2023-05-21T03:24:50;99664.94;;;13.03;74.17
39267;BME280;24967;51.154;13.812;2023-05-21T03:27:17;99664.44;;;13.00;74.53
39267;BME280;24967;51.154;13.812;2023-05-21T03:29:43;99668.94;;;12.99;74.58
39267;BME280;24967;51.154;13.812;2023-05-21T03:32:10;99659.78;;;13.02;74.62
39267;BME280;24967;51.154;13.812;2023-05-21T03:34:36;99658.28;;;12.99;74.68
39267;BME280;24967;51.154;13.812;2023-05-21T03:37:03;99667.13;;;13.00;74.72
39267;BME280;24967;51.154;13.812;2023-05-21T03:39:31;99665.63;;;13.05;75.00
39267;BME280;24967;51.154;13.812;2023-05-21T03:41:57;99663.09;;;13.04;75.10
39267;BME280;24967;51.154;13.812;2023-05-21T03:44:24;99667.47;;;13.05;75.10
39267;BME280;24967;51.154;13.812;2023-05-21T03:46:50;99660.75;;;13.01;75.39
39267;BME280;24967;51.154;13.812;2023-05-21T03:49:16;99670.28;;;13.03;75.91
39267;BME280;24967;51.154;13.812;2023-05-21T03:51:43;99664.94;;;13.03;76.03
39267;BME280;24967;51.154;13.812;2023-05-21T03:54:09;99671.66;;;13.07;76.03
39267;BME280;24967;51.154;13.812;2023-05-21T03:56:37;99660.28;;;13.05;77.04
39267;BME280;24967;51.154;13.812;2023-05-21T03:59:03;99664.47;;;13.08;77.86
39267;BME280;24967;51.154;13.812;2023-05-21T04:01:30;99664.50;;;13.16;79.39
39267;BME280;24967;51.154;13.812;2023-05-21T04:03:57;99661.81;;;13.16;78.84
39267;BME280;24967;51.154;13.812;2023-05-21T04:06:23;99665.66;;;13.22;78.29
39267;BME280;24967;51.154;13.812;2023-05-21T04:08:50;99666.53;;;13.31;78.42
39267;BME280;24967;51.154;13.812;2023-05-21T04:11:16;99660.03;;;13.33;77.81
39267;BME280;24967;51.154;13.812;2023-05-21T04:13:44;99661.03;;;13.40;77.86
39267;BME280;24967;51.154;13.812;2023-05-21T04:16:12;99665.88;;;13.45;77.66
39267;BME280;24967;51.154;13.812;2023-05-21T04:18:38;99661.03;;;13.48;77.28
39267;BME280;24967;51.154;13.812;2023-05-21T04:21:05;99660.72;;;13.51;77.56
39267;BME280;24967;51.154;13.812;2023-05-21T04:23:31;99656.88;;;13.54;77.58
39267;BME280;24967;51.154;13.812;2023-05-21T04:26:00;99671.06;;;13.63;77.18
39267;BME280;24967;51.154;13.812;2023-05-21T04:28:27;99675.75;;;13.69;77.31
39267;BME280;24967;51.154;13.812;2023-05-21T04:30:55;99672.22;;;13.77;77.13
39267;BME280;24967;51.154;13.812;2023-05-21T04:33:21;99672.56;;;13.82;77.08
39267;BME280;24967;51.154;13.812;2023-05-21T04:35:49;99679.06;;;13.87;77.31
39267;BME280;24967;51.154;13.812;2023-05-21T04:38:16;99673.56;;;13.89;77.70
39267;BME280;24967;51.154;13.812;2023-05-21T04:40:44;99674.41;;;13.89;78.80
39267;BME280;24967;51.154;13.812;2023-05-21T04:43:10;99672.22;;;14.01;78.74
39267;BME280;24967;51.154;13.812;2023-05-21T04:45:37;99675.69;;;14.10;78.90
39267;BME280;24967;51.154;13.812;2023-05-21T04:48:05;99675.53;;;14.19;79.04
39267;BME280;24967;51.154;13.812;2023-05-21T04:50:32;99677.66;;;14.32;78.92
39267;BME280;24967;51.154;13.812;2023-05-21T04:52:58;99676.44;;;14.43;78.97
39267;BME280;24967;51.154;13.812;2023-05-21T04:55:25;99674.44;;;14.53;79.21
39267;BME280;24967;51.154;13.812;2023-05-21T04:57:51;99670.91;;;14.61;80.19
39267;BME280;24967;51.154;13.812;2023-05-21T05:00:18;99673.34;;;14.79;79.79
39267;BME280;24967;51.154;13.812;2023-05-21T05:02:45;99669.56;;;14.96;79.73
39267;BME280;24967;51.154;13.812;2023-05-21T05:05:12;99667.34;;;15.08;80.10
39267;BME280;24967;51.154;13.812;2023-05-21T05:07:39;99665.31;;;15.10;83.06
39267;BME280;24967;51.154;13.812;2023-05-21T05:10:06;99668.75;;;15.19;85.77
39267;BME280;24967;51.154;13.812;2023-05-21T05:12:33;99670.09;;;15.23;87.61
39267;BME280;24967;51.154;13.812;2023-05-21T05:14:59;99672.84;;;15.38;88.38
39267;BME280;24967;51.154;13.812;2023-05-21T05:17:26;99676.03;;;15.56;86.98
39267;BME280;24967;51.154;13.812;2023-05-21T05:19:52;99666.34;;;15.78;87.07
39267;BME280;24967;51.154;13.812;2023-05-21T05:22:20;99656.59;;;16.15;86.97
39267;BME280;24967;51.154;13.812;2023-05-21T05:24:46;99655.78;;;16.59;86.96
39267;BME280;24967;51.154;13.812;2023-05-21T05:27:13;99662.13;;;17.24;84.23
39267;BME280;24967;51.154;13.812;2023-05-21T05:29:39;99660.81;;;18.05;80.62
39267;BME280;24967;51.154;13.812;2023-05-21T05:32:06;99649.06;;;18.76;76.12
39267;BME280;24967;51.154;13.812;2023-05-21T05:34:33;99645.06;;;19.60;72.52
39267;BME280;24967;51.154;13.812;2023-05-21T05:36:59;99655.00;;;20.32;69.28
39267;BME280;24967;51.154;13.812;2023-05-21T05:39:28;99649.19;;;21.00;67.84
39267;BME280;24967;51.154;13.812;2023-05-21T05:41:54;99640.50;;;21.62;66.55
39267;BME280;24967;51.154;13.812;2023-05-21T05:44:21;99631.44;;;22.25;64.88
39267;BME280;24967;51.154;13.812;2023-05-21T05:46:47;99634.16;;;22.61;62.01
39267;BME280;24967;51.154;13.812;2023-05-21T05:49:14;99630.91;;;23.20;60.43
39267;BME280;24967;51.154;13.812;2023-05-21T05:51:40;99640.38;;;23.71;59.26
39267;BME280;24967;51.154;13.812;2023-05-21T05:54:07;99627.28;;;23.91;58.01
39267;BME280;24967;51.154;13.812;2023-05-21T05:56:35;99624.19;;;24.11;56.48
39267;BME280;24967;51.154;13.812;2023-05-21T05:59:01;99630.22;;;24.25;56.59
39267;BME280;24967;51.154;13.812;2023-05-21T06:01:28;99629.75;;;24.28;56.87
39267;BME280;24967;51.154;13.812;2023-05-21T06:03:56;99631.06;;;24.49;55.58
39267;BME280;24967;51.154;13.812;2023-05-21T06:06:22;99623.34;;;24.58;55.04
39267;BME280;24967;51.154;13.812;2023-05-21T06:08:49;99630.66;;;24.69;54.05
39267;BME280;24967;51.154;13.812;2023-05-21T06:11:15;99631.09;;;24.78;54.76
39267;BME280;24967;51.154;13.812;2023-05-21T06:13:44;99627.50;;;24.89;55.07
39267;BME280;24967;51.154;13.812;2023-05-21T06:16:10;99632.13;;;25.17;54.92
39267;BME280;24967;51.154;13.812;2023-05-21T06:18:37;99628.19;;;24.96;53.83
39267;BME280;24967;51.154;13.812;2023-05-21T06:21:04;99631.09;;;25.06;54.42
39267;BME280;24967;51.154;13.812;2023-05-21T06:23:30;99624.91;;;25.23;54.58
39267;BME280;24967;51.154;13.812;2023-05-21T06:25:57;99633.88;;;25.23;54.42
39267;BME280;24967;51.154;13.812;2023-05-21T06:28:23;99620.88;;;25.25;53.70
39267;BME280;24967;51.154;13.812;2023-05-21T06:30:51;99621.78;;;25.31;54.50
39267;BME280;24967;51.154;13.812;2023-05-21T06:33:18;99624.50;;;25.31;54.91
39267;BME280;24967;51.154;13.812;2023-05-21T06:35:44;99622.25;;;24.99;53.92
39267;BME280;24967;51.154;13.812;2023-05-21T06:38:11;99626.91;;;25.27;55.68
39267;BME280;24967;51.154;13.812;2023-05-21T06:40:38;99623.41;;;25.15;53.48
39267;BME280;24967;51.154;13.812;2023-05-21T06:43:04;99635.50;;;25.53;53.98
39267;BME280;24967;51.154;13.812;2023-05-21T06:45:30;99625.03;;;25.78;54.06
39267;BME280;24967;51.154;13.812;2023-05-21T06:47:58;99631.03;;;26.14;53.85
39267;BME280;24967;51.154;13.812;2023-05-21T06:50:25;99628.88;;;26.33;51.45
39267;BME280;24967;51.154;13.812;2023-05-21T06:52:51;99627.66;;;26.46;51.69
39267;BME280;24967;51.154;13.812;2023-05-21T06:55:18;99629.41;;;26.35;50.38
39267;BME280;24967;51.154;13.812;2023-05-21T06:57:44;99622.59;;;26.33;51.05
39267;BME280;24967;51.154;13.812;2023-05-21T07:00:11;99613.44;;;26.22;51.49
39267;BME280;24967;51.154;13.812;2023-05-21T07:02:38;99623.31;;;26.06;52.14
39267;BME280;24967;51.154;13.812;2023-05-21T07:05:06;99625.94;;;26.01;52.21
39267;BME280;24967;51.154;13.812;2023-05-21T07:07:33;99625.03;;;25.95;52.34
39267;BME280;24967;51.154;13.812;2023-05-21T07:10:01;99621.16;;;25.74;52.91
39267;BME280;24967;51.154;13.812;2023-05-21T07:12:27;99622.31;;;25.62;53.54
39267;BME280;24967;51.154;13.812;2023-05-21T07:14:54;99619.34;;;25.63;54.20
39267;BME280;24967;51.154;13.812;2023-05-21T07:17:20;99621.91;;;25.70;54.97
39267;BME280;24967;51.154;13.812;2023-05-21T07:19:46;99624.78;;;25.63;55.42
39267;BME280;24967;51.154;13.812;2023-05-21T07:22:14;99615.66;;;25.86;55.24
39267;BME280;24967;51.154;13.812;2023-05-21T07:24:41;99617.84;;;26.06;54.55
39267;BME280;24967;51.154;13.812;2023-05-21T07:27:07;99617.97;;;25.94;52.61
39267;BME280;24967;51.154;13.812;2023-05-21T07:29:34;99611.31;;;26.07;52.18
39267;BME280;24967;51.154;13.812;2023-05-21T07:32:01;99616.19;;;26.05;53.02
39267;BME280;24967;51.154;13.812;2023-05-21T07:34:30;99622.19;;;26.24;52.03
39267;BME280;24967;51.154;13.812;2023-05-21T07:37:01;99615.97;;;26.28;52.74
39267;BME280;24967;51.154;13.812;2023-05-21T07:39:35;99613.91;;;26.36;52.72
39267;BME280;24967;51.154;13.812;2023-05-21T07:42:15;99614.72;;;26.36;52.45
39267;BME280;24967;51.154;13.812;2023-05-21T07:44:48;99617.97;;;26.33;52.33
39267;BME280;24967;51.154;13.812;2023-05-21T07:47:32;99609.03;;;26.38;52.50
39267;BME280;24967;51.154;13.812;2023-05-21T07:50:00;99614.72;;;26.36;52.54
39267;BME280;24967;51.154;13.812;2023-05-21T07:52:41;99615.03;;;26.18;51.87
39267;BME280;24967;51.154;13.812;2023-05-21T07:55:29;99613.38;;;26.17;52.95
39267;BME280;24967;51.154;13.812;2023-05-21T07:58:08;99608.03;;;26.05;53.32
39267;BME280;24967;51.154;13.812;2023-05-21T08:03:42;99617.38;;;25.75;53.59
39267;BME280;24967;51.154;13.812;2023-05-21T08:06:15;99615.66;;;25.86;53.57
39267;BME280;24967;51.154;13.812;2023-05-21T08:08:52;99619.13;;;25.81;53.34
39267;BME280;24967;51.154;13.812;2023-05-21T08:11:39;99626.22;;;25.83;53.74
39267;BME280;24967;51.154;13.812;2023-05-21T08:14:09;99618.78;;;25.95;54.22
39267;BME280;24967;51.154;13.812;2023-05-21T08:16:41;99629.91;;;25.76;54.29
39267;BME280;24967;51.154;13.812;2023-05-21T08:19:15;99626.34;;;25.93;54.63
39267;BME280;24967;51.154;13.812;2023-05-21T08:21:51;99627.44;;;25.92;53.75
39267;BME280;24967;51.154;13.812;2023-05-21T08:24:27;99624.63;;;25.70;51.21
39267;BME280;24967;51.154;13.812;2023-05-21T08:27:02;99628.66;;;25.67;53.34
39267;BME280;24967;51.154;13.812;2023-05-21T08:29:32;99626.94;;;25.61;53.42
39267;BME280;24967;51.154;13.812;2023-05-21T08:32:06;99633.28;;;25.67;53.75
39267;BME280;24967;51.154;13.812;2023-05-21T08:34:40;99626.84;;;25.90;53.39
39267;BME280;24967;51.154;13.812;2023-05-21T08:37:13;99631.81;;;25.93;52.80
39267;BME280;24967;51.154;13.812;2023-05-21T08:39:45;99625.53;;;26.09;54.64
39267;BME280;24967;51.154;13.812;2023-05-21T08:42:35;99626.75;;;26.18;55.18
39267;BME280;24967;51.154;13.812;2023-05-21T08:45:20;99630.56;;;26.17;55.19
39267;BME280;24967;51.154;13.812;2023-05-21T08:48:00;99626.84;;;26.23;55.84
39267;BME280;24967;51.154;13.812;2023-05-21T08:50:50;99626.88;;;26.28;57.37
39267;BME280;24967;51.154;13.812;2023-05-21T08:53:28;99625.13;;;26.39;56.38
39267;BME280;24967;51.154;13.812;2023-05-21T08:56:01;99626.34;;;26.26;55.75
39267;BME280;24967;51.154;13.812;2023-05-21T08:58:39;99629.72;;;26.17;56.12
39267;BME280;24967;51.154;13.812;2023-05-21T09:01:14;99623.75;;;26.20;56.80
39267;BME280;24967;51.154;13.812;2023-05-21T09:03:50;99624.66;;;26.47;57.07
39267;BME280;24967;51.154;13.812;2023-05-21T09:06:26;99627.19;;;26.49;55.99
39267;BME280;24967;51.154;13.812;2023-05-21T09:09:11;99630.31;;;26.41;55.62
39267;BME280;24967;51.154;13.812;2023-05-21T09:11:52;99633.53;;;26.38;55.55
39267;BME280;24967;51.154;13.812;2023-05-21T09:14:30;99626.66;;;26.13;54.94
39267;BME280;24967;51.154;13.812;2023-05-21T09:17:12;99627.97;;;26.27;55.13
39267;BME280;24967;51.154;13.812;2023-05-21T09:20:03;99629.78;;;26.22;56.07
39267;BME280;24967;51.154;13.812;2023-05-21T09:25:32;99630.03;;;26.59;55.51
39267;BME280;24967;51.154;13.812;2023-05-21T09:28:20;99624.72;;;26.69;54.25
39267;BME280;24967;51.154;13.812;2023-05-21T09:31:01;99623.09;;;26.95;54.00
39267;BME280;24967;51.154;13.812;2023-05-21T09:33:29;99624.47;;;27.20;52.79
39267;BME280;24967;51.154;13.812;2023-05-21T09:36:03;99619.97;;;27.09;53.22
39267;BME280;24967;51.154;13.812;2023-05-21T09:38:36;99623.97;;;27.01;53.41
39267;BME280;24967;51.154;13.812;2023-05-21T09:41:05;99627.66;;;26.90;53.63
39267;BME280;24967;51.154;13.812;2023-05-21T09:43:40;99619.47;;;27.12;53.14
39267;BME280;24967;51.154;13.812;2023-05-21T09:46:13;99620.75;;;27.31;53.11
39267;BME280;24967;51.154;13.812;2023-05-21T09:48:44;99619.50;;;27.39;53.66
39267;BME280;24967;51.154;13.812;2023-05-21T09:51:22;99628.84;;;27.48;52.56
39267;BME280;24967;51.154;13.812;2023-05-21T09:54:06;99621.00;;;27.57;51.67
39267;BME280;24967;51.154;13.812;2023-05-21T09:56:44;99625.59;;;27.83;52.20
39267;BME280;24967;51.154;13.812;2023-05-21T09:59:13;99614.53;;;28.00;51.29
39267;BME280;24967;51.154;13.812;2023-05-21T10:01:52;99617.50;;;27.94;50.79
39267;BME280;24967;51.154;13.812;2023-05-21T10:04:32;99616.88;;;27.54;52.05
39267;BME280;24967;51.154;13.812;2023-05-21T10:07:19;99621.19;;;27.50;51.47
39267;BME280;24967;51.154;13.812;2023-05-21T10:10:00;99624.16;;;27.44;51.56
39267;BME280;24967;51.154;13.812;2023-05-21T10:12:38;99621.56;;;27.05;52.46
39267;BME280;24967;51.154;13.812;2023-05-21T10:18:12;99626.41;;;26.98;52.91
39267;BME280;24967;51.154;13.812;2023-05-21T10:20:50;99636.94;;;26.89;54.35
39267;BME280;24967;51.154;13.812;2023-05-21T10:23:31;99639.59;;;26.84;54.72
39267;BME280;24967;51.154;13.812;2023-05-21T10:26:21;99651.59;;;26.83;53.84
39267;BME280;24967;51.154;13.812;2023-05-21T10:29:01;99652.44;;;26.61;55.18
39267;BME280;24967;51.154;13.812;2023-05-21T10:31:36;99648.22;;;26.54;55.16
39267;BME280;24967;51.154;13.812;2023-05-21T10:34:12;99653.50;;;26.21;56.79
39267;BME280;24967;51.154;13.812;2023-05-21T10:36:41;99657.50;;;25.97;56.98
39267;BME280;24967;51.154;13.812;2023-05-21T10:39:13;99654.19;;;25.95;57.12
39267;BME280;24967;51.154;13.812;2023-05-21T10:41:50;99653.50;;;25.71;59.67
39267;BME280;24967;51.154;13.812;2023-05-21T10:44:25;99639.09;;;25.42;62.23
39267;BME280;24967;51.154;13.812;2023-05-21T10:47:14;99635.63;;;25.29;62.65
39267;BME280;24967;51.154;13.812;2023-05-21T10:53:12;99601.91;;;25.02;62.93
39267;BME280;24967;51.154;13.812;2023-05-21T10:55:58;99601.66;;;25.15;62.84
39267;BME280;24967;51.154;13.812;2023-05-21T10:58:58;99601.00;;;25.25;63.95
39267;BME280;24967;51.154;13.812;2023-05-21T11:01:29;99611.13;;;25.29;63.24
39267;BME280;24967;51.154;13.812;2023-05-21T11:04:12;99612.16;;;25.40;61.07
39267;BME280;24967;51.154;13.812;2023-05-21T11:06:45;99613.38;;;25.32;60.97
39267;BME280;24967;51.154;13.812;2023-05-21T11:09:16;99609.84;;;25.49;64.42
39267;BME280;24967;51.154;13.812;2023-05-21T11:11:52;99615.19;;;25.77;64.50
39267;BME280;24967;51.154;13.812;2023-05-21T11:14:37;99612.16;;;26.08;63.15
39267;BME280;24967;51.154;13.812;2023-05-21T11:17:14;99605.69;;;26.14;61.99
39267;BME280;24967;51.154;13.812;2023-05-21T11:19:46;99602.88;;;26.47;62.07
39267;BME280;24967;51.154;13.812;2023-05-21T11:22:23;99593.44;;;26.77;60.57
39267;BME280;24967;51.154;13.812;2023-05-21T11:25:06;99586.78;;;26.68;56.33
39267;BME280;24967;51.154;13.812;2023-05-21T11:27:42;99611.78;;;26.82;55.02
39267;BME280;24967;51.154;13.812;2023-05-21T11:30:25;99611.44;;;26.34;59.86
39267;BME280;24967;51.154;13.812;2023-05-21T11:33:16;99596.94;;;26.50;59.05
39267;BME280;24967;51.154;13.812;2023-05-21T11:35:57;99594.47;;;26.71;57.97
39267;BME280;24967;51.154;13.812;2023-05-21T11:38:32;99593.22;;;26.57;57.35
39267;BME280;24967;51.154;13.812;2023-05-21T11:41:03;99585.22;;;26.72;56.58
39267;BME280;24967;51.154;13.812;2023-05-21T11:43:47;99587.13;;;26.49;55.99
39267;BME280;24967;51.154;13.812;2023-05-21T11:46:28;99592.81;;;26.48;56.58
39267;BME280;24967;51.154;13.812;2023-05-21T11:49:11;99590.34;;;26.68;57.24
39267;BME280;24967;51.154;13.812;2023-05-21T11:51:42;99591.41;;;26.89;57.26
39267;BME280;24967;51.154;13.812;2023-05-21T11:54:21;99593.66;;;26.70;55.93
39267;BME280;24967;51.154;13.812;2023-05-21T11:56:57;99598.25;;;26.48;56.58
39267;BME280;24967;51.154;13.812;2023-05-21T11:59:24;99579.50;;;26.30;55.96
39267;BME280;24967;51.154;13.812;2023-05-21T12:01:58;99571.94;;;25.42;58.12
39267;BME280;24967;51.154;13.812;2023-05-21T12:04:30;99582.78;;;25.25;58.34
39267;BME280;24967;51.154;13.812;2023-05-21T12:07:08;99586.09;;;25.27;57.04
39267;BME280;24967;51.154;13.812;2023-05-21T12:09:46;99589.78;;;25.38;55.80
39267;BME280;24967;51.154;13.812;2023-05-21T12:12:21;99614.72;;;25.47;59.48
39267;BME280;24967;51.154;13.812;2023-05-21T12:14:52;99609.06;;;25.20;61.47
39267;BME280;24967;51.154;13.812;2023-05-21T12:17:24;99618.81;;;24.75;60.63
39267;BME280;24967;51.154;13.812;2023-05-21T12:19:54;99602.78;;;24.62;60.84
39267;BME280;24967;51.154;13.812;2023-05-21T12:22:22;99604.38;;;24.11;62.42
39267;BME280;24967;51.154;13.812;2023-05-21T12:24:52;99601.78;;;24.04;63.14
39267;BME280;24967;51.154;13.812;2023-05-21T12:27:34;99605.19;;;24.23;63.54
39267;BME280;24967;51.154;13.812;2023-05-21T12:30:09;99601.16;;;24.37;63.39
39267;BME280;24967;51.154;13.812;2023-05-21T12:32:43;99595.09;;;24.59;63.34
39267;BME280;24967;51.154;13.812;2023-05-21T12:35:24;99591.97;;;24.79;61.04
39267;BME280;24967;51.154;13.812;2023-05-21T12:38:06;99595.47;;;24.91;58.44
39267;BME280;24967;51.154;13.812;2023-05-21T12:40:41;99585.59;;;25.02;57.45
39267;BME280;24967;51.154;13.812;2023-05-21T12:43:11;99587.38;;;24.96;56.57
39267;BME280;24967;51.154;13.812;2023-05-21T12:45:42;99588.81;;;24.99;56.88
39267;BME280;24967;51.154;13.812;2023-05-21T12:48:15;99590.69;;;24.98;56.82
39267;BME280;24967;51.154;13.812;2023-05-21T12:50:42;99583.91;;;25.12;57.68
39267;BME280;24967;51.154;13.812;2023-05-21T12:53:08;99586.34;;;25.43;57.32
39267;BME280;24967;51.154;13.812;2023-05-21T12:55:39;99581.47;;;25.62;55.38
39267;BME280;24967;51.154;13.812;2023-05-21T12:58:06;99571.53;;;25.84;55.90
39267;BME280;24967;51.154;13.812;2023-05-21T13:00:34;99575.47;;;25.93;54.31
39267;BME280;24967;51.154;13.812;2023-05-21T13:03:01;99570.63;;;26.17;52.61
39267;BME280;24967;51.154;13.812;2023-05-21T13:05:38;99561.50;;;26.28;53.08
39267;BME280;24967;51.154;13.812;2023-05-21T13:08:12;99553.50;;;26.44;52.48
39267;BME280;24967;51.154;13.812;2023-05-21T13:10:55;99558.06;;;26.38;52.92
39267;BME280;24967;51.154;13.812;2023-05-21T13:13:30;99555.41;;;26.65;53.28
39267;BME280;24967;51.154;13.812;2023-05-21T13:16:08;99545.53;;;26.86;50.47
39267;BME280;24967;51.154;13.812;2023-05-21T13:18:51;99549.16;;;26.92;51.06
39267;BME280;24967;51.154;13.812;2023-05-21T13:21:24;99544.13;;;27.11;50.94